sensor_id;sensor_type;location;lat;lon;timestamp;P1;durP1;ratioP1;P2;durP2;ratioP2
19127;SDS011;9696;53.686;10.094;2022-07-18T00:00:13;1.93;;;1.57;;
19127;SDS011;9696;53.686;10.094;2022-07-18T00:02:42;2.57;;;1.70;;
19127;SDS011;9696;53.686;10.094;2022-07-18T00:05:13;3.57;;;1.43;;
19127;SDS011;9696;53.686;10.094;2022-07-18T00:07:42;2.33;;;1.50;;
19127;SDS011;9696;53.686;10.094;2022-07-18T00:10:12;2.13;;;1.60;;
19127;SDS011;9696;53.686;10.094;2022-07-18T00:12:41;3.40;;;1.60;;
19127;SDS011;9696;53.686;10.094;2022-07-18T00:15:10;3.90;;;1.80;;
19127;SDS011;9696;53.686;10.094;2022-07-18T00:17:39;1.80;;;1.57;;
19127;SDS011;9696;53.686;10.094;2022-07-18T00:20:08;2.07;;;1.47;;
19127;SDS011;9696;53.686;10.094;2022-07-18T00:22:38;3.70;;;1.73;;
19127;SDS011;9696;53.686;10.094;2022-07-18T00:25:07;2.40;;;1.77;;
19127;SDS011;9696;53.686;10.094;2022-07-18T00:27:37;3.03;;;2.00;;
19127;SDS011;9696;53.686;10.094;2022-07-18T00:30:06;3.73;;;1.97;;
19127;SDS011;9696;53.686;10.094;2022-07-18T00:32:35;5.73;;;1.87;;
19127;SDS011;9696;53.686;10.094;2022-07-18T00:35:04;4.30;;;1.53;;
19127;SDS011;9696;53.686;10.094;2022-07-18T00:37:33;1.87;;;1.47;;
19127;SDS011;9696;53.686;10.094;2022-07-18T00:40:02;2.47;;;1.30;;
19127;SDS011;9696;53.686;10.094;2022-07-18T00:42:31;2.40;;;1.53;;
19127;SDS011;9696;53.686;10.094;2022-07-18T00:45:01;2.87;;;1.70;;
19127;SDS011;9696;53.686;10.094;2022-07-18T00:47:31;3.63;;;1.67;;
19127;SDS011;9696;53.686;10.094;2022-07-18T00:50:00;2.83;;;1.70;;
19127;SDS011;9696;53.686;10.094;2022-07-18T00:52:29;4.27;;;1.67;;
19127;SDS011;9696;53.686;10.094;2022-07-18T00:54:58;1.43;;;1.33;;
19127;SDS011;9696;53.686;10.094;2022-07-18T00:57:27;2.33;;;1.50;;
19127;SDS011;9696;53.686;10.094;2022-07-18T00:59:56;2.97;;;1.63;;
19127;SDS011;9696;53.686;10.094;2022-07-18T01:02:46;2.27;;;1.57;;
19127;SDS011;9696;53.686;10.094;2022-07-18T01:05:15;2.93;;;1.50;;
19127;SDS011;9696;53.686;10.094;2022-07-18T01:07:44;1.83;;;1.30;;
19127;SDS011;9696;53.686;10.094;2022-07-18T01:10:12;2.03;;;1.47;;
19127;SDS011;9696;53.686;10.094;2022-07-18T01:12:41;2.90;;;1.57;;
19127;SDS011;9696;53.686;10.094;2022-07-18T01:15:10;1.93;;;1.50;;
19127;SDS011;9696;53.686;10.094;2022-07-18T01:17:41;1.77;;;1.60;;
19127;SDS011;9696;53.686;10.094;2022-07-18T01:20:11;2.20;;;1.30;;
19127;SDS011;9696;53.686;10.094;2022-07-18T01:22:41;1.73;;;1.50;;
19127;SDS011;9696;53.686;10.094;2022-07-18T01:25:10;2.13;;;1.43;;
19127;SDS011;9696;53.686;10.094;2022-07-18T01:27:41;5.03;;;2.07;;
19127;SDS011;9696;53.686;10.094;2022-07-18T01:30:10;1.93;;;1.50;;
19127;SDS011;9696;53.686;10.094;2022-07-18T01:32:39;2.30;;;1.50;;
19127;SDS011;9696;53.686;10.094;2022-07-18T01:35:08;3.53;;;1.43;;
19127;SDS011;9696;53.686;10.094;2022-07-18T01:37:37;3.27;;;1.40;;
19127;SDS011;9696;53.686;10.094;2022-07-18T01:40:08;2.63;;;1.37;;
19127;SDS011;9696;53.686;10.094;2022-07-18T01:42:38;2.80;;;1.33;;
19127;SDS011;9696;53.686;10.094;2022-07-18T01:45:07;1.97;;;1.23;;
19127;SDS011;9696;53.686;10.094;2022-07-18T01:47:35;1.93;;;1.30;;
19127;SDS011;9696;53.686;10.094;2022-07-18T01:50:05;2.40;;;1.47;;
19127;SDS011;9696;53.686;10.094;2022-07-18T01:52:36;2.17;;;1.53;;
19127;SDS011;9696;53.686;10.094;2022-07-18T01:55:05;2.53;;;1.40;;
19127;SDS011;9696;53.686;10.094;2022-07-18T01:57:38;3.17;;;1.43;;
19127;SDS011;9696;53.686;10.094;2022-07-18T02:00:10;2.97;;;1.27;;
19127;SDS011;9696;53.686;10.094;2022-07-18T02:02:40;2.50;;;1.50;;
19127;SDS011;9696;53.686;10.094;2022-07-18T02:05:09;3.03;;;1.50;;
19127;SDS011;9696;53.686;10.094;2022-07-18T02:07:38;1.30;;;1.20;;
19127;SDS011;9696;53.686;10.094;2022-07-18T02:10:10;2.30;;;1.40;;
19127;SDS011;9696;53.686;10.094;2022-07-18T02:12:40;2.13;;;1.60;;
19127;SDS011;9696;53.686;10.094;2022-07-18T02:15:09;2.17;;;1.47;;
19127;SDS011;9696;53.686;10.094;2022-07-18T02:17:40;2.83;;;1.70;;
19127;SDS011;9696;53.686;10.094;2022-07-18T02:20:10;2.87;;;1.50;;
19127;SDS011;9696;53.686;10.094;2022-07-18T02:22:40;2.10;;;1.60;;
19127;SDS011;9696;53.686;10.094;2022-07-18T02:25:10;3.70;;;1.73;;
19127;SDS011;9696;53.686;10.094;2022-07-18T02:27:39;3.43;;;1.63;;
19127;SDS011;9696;53.686;10.094;2022-07-18T02:30:08;1.63;;;1.27;;
19127;SDS011;9696;53.686;10.094;2022-07-18T02:32:38;3.07;;;1.90;;
19127;SDS011;9696;53.686;10.094;2022-07-18T02:35:07;2.03;;;1.60;;
19127;SDS011;9696;53.686;10.094;2022-07-18T02:37:36;2.47;;;1.60;;
19127;SDS011;9696;53.686;10.094;2022-07-18T02:40:07;3.00;;;1.60;;
19127;SDS011;9696;53.686;10.094;2022-07-18T02:42:38;4.20;;;1.80;;
19127;SDS011;9696;53.686;10.094;2022-07-18T02:45:10;2.73;;;1.30;;
19127;SDS011;9696;53.686;10.094;2022-07-18T02:47:39;4.10;;;1.80;;
19127;SDS011;9696;53.686;10.094;2022-07-18T02:50:08;3.33;;;1.77;;
19127;SDS011;9696;53.686;10.094;2022-07-18T02:52:38;3.90;;;2.20;;
19127;SDS011;9696;53.686;10.094;2022-07-18T02:55:07;2.00;;;1.60;;
19127;SDS011;9696;53.686;10.094;2022-07-18T02:57:38;3.70;;;1.40;;
19127;SDS011;9696;53.686;10.094;2022-07-18T03:00:08;1.83;;;1.20;;
19127;SDS011;9696;53.686;10.094;2022-07-18T03:02:38;1.57;;;1.47;;
19127;SDS011;9696;53.686;10.094;2022-07-18T03:05:08;3.27;;;1.50;;
19127;SDS011;9696;53.686;10.094;2022-07-18T03:07:37;2.30;;;1.53;;
19127;SDS011;9696;53.686;10.094;2022-07-18T03:10:08;6.17;;;1.50;;
19127;SDS011;9696;53.686;10.094;2022-07-18T03:12:39;1.67;;;1.40;;
19127;SDS011;9696;53.686;10.094;2022-07-18T03:15:09;4.83;;;1.70;;
19127;SDS011;9696;53.686;10.094;2022-07-18T03:17:37;2.93;;;1.80;;
19127;SDS011;9696;53.686;10.094;2022-07-18T03:20:06;3.07;;;1.63;;
19127;SDS011;9696;53.686;10.094;2022-07-18T03:22:35;2.63;;;1.63;;
19127;SDS011;9696;53.686;10.094;2022-07-18T03:25:04;2.17;;;1.50;;
19127;SDS011;9696;53.686;10.094;2022-07-18T03:27:42;2.73;;;1.40;;
19127;SDS011;9696;53.686;10.094;2022-07-18T03:30:11;6.70;;;1.50;;
19127;SDS011;9696;53.686;10.094;2022-07-18T03:32:40;5.07;;;1.87;;
19127;SDS011;9696;53.686;10.094;2022-07-18T03:35:09;2.60;;;1.37;;
19127;SDS011;9696;53.686;10.094;2022-07-18T03:37:37;3.37;;;1.70;;
19127;SDS011;9696;53.686;10.094;2022-07-18T03:40:06;4.80;;;1.73;;
19127;SDS011;9696;53.686;10.094;2022-07-18T03:42:36;3.57;;;1.97;;
19127;SDS011;9696;53.686;10.094;2022-07-18T03:45:07;8.37;;;2.07;;
19127;SDS011;9696;53.686;10.094;2022-07-18T03:47:36;5.53;;;1.73;;
19127;SDS011;9696;53.686;10.094;2022-07-18T03:50:05;2.33;;;1.60;;
19127;SDS011;9696;53.686;10.094;2022-07-18T03:52:34;3.53;;;2.10;;
19127;SDS011;9696;53.686;10.094;2022-07-18T03:55:04;3.87;;;1.90;;
19127;SDS011;9696;53.686;10.094;2022-07-18T03:57:33;3.80;;;2.00;;
19127;SDS011;9696;53.686;10.094;2022-07-18T04:00:02;4.53;;;2.50;;
19127;SDS011;9696;53.686;10.094;2022-07-18T04:02:33;3.43;;;2.30;;
19127;SDS011;9696;53.686;10.094;2022-07-18T04:05:04;5.57;;;2.20;;
19127;SDS011;9696;53.686;10.094;2022-07-18T04:07:33;3.63;;;2.30;;
19127;SDS011;9696;53.686;10.094;2022-07-18T04:10:02;4.17;;;2.17;;
19127;SDS011;9696;53.686;10.094;2022-07-18T04:12:32;3.27;;;2.03;;
19127;SDS011;9696;53.686;10.094;2022-07-18T04:15:00;4.60;;;2.40;;
19127;SDS011;9696;53.686;10.094;2022-07-18T04:17:29;3.47;;;2.20;;
19127;SDS011;9696;53.686;10.094;2022-07-18T04:19:59;4.47;;;2.23;;
19127;SDS011;9696;53.686;10.094;2022-07-18T04:22:28;3.80;;;2.20;;
19127;SDS011;9696;53.686;10.094;2022-07-18T04:24:56;3.00;;;1.73;;
19127;SDS011;9696;53.686;10.094;2022-07-18T04:27:25;4.07;;;1.93;;
19127;SDS011;9696;53.686;10.094;2022-07-18T04:29:53;5.30;;;2.20;;
19127;SDS011;9696;53.686;10.094;2022-07-18T04:32:22;5.27;;;2.30;;
19127;SDS011;9696;53.686;10.094;2022-07-18T04:34:50;3.93;;;1.97;;
19127;SDS011;9696;53.686;10.094;2022-07-18T04:37:20;6.10;;;2.50;;
19127;SDS011;9696;53.686;10.094;2022-07-18T04:39:48;4.60;;;2.23;;
19127;SDS011;9696;53.686;10.094;2022-07-18T04:42:17;4.37;;;2.50;;
19127;SDS011;9696;53.686;10.094;2022-07-18T04:44:48;5.57;;;2.63;;
19127;SDS011;9696;53.686;10.094;2022-07-18T04:47:17;5.97;;;2.20;;
19127;SDS011;9696;53.686;10.094;2022-07-18T04:49:50;4.93;;;2.30;;
19127;SDS011;9696;53.686;10.094;2022-07-18T04:52:20;4.00;;;2.33;;
19127;SDS011;9696;53.686;10.094;2022-07-18T04:54:48;4.13;;;2.40;;
19127;SDS011;9696;53.686;10.094;2022-07-18T04:57:18;5.70;;;2.40;;
19127;SDS011;9696;53.686;10.094;2022-07-18T04:59:46;10.13;;;2.50;;
19127;SDS011;9696;53.686;10.094;2022-07-18T05:02:15;7.63;;;2.40;;
19127;SDS011;9696;53.686;10.094;2022-07-18T05:04:43;9.17;;;2.20;;
19127;SDS011;9696;53.686;10.094;2022-07-18T05:07:12;4.57;;;2.20;;
19127;SDS011;9696;53.686;10.094;2022-07-18T05:09:42;7.07;;;2.07;;
19127;SDS011;9696;53.686;10.094;2022-07-18T05:12:10;4.60;;;2.20;;
19127;SDS011;9696;53.686;10.094;2022-07-18T05:14:39;4.23;;;2.17;;
19127;SDS011;9696;53.686;10.094;2022-07-18T05:17:14;5.30;;;2.40;;
19127;SDS011;9696;53.686;10.094;2022-07-18T05:19:46;6.57;;;2.30;;
19127;SDS011;9696;53.686;10.094;2022-07-18T05:22:17;3.65;;;1.90;;
19127;SDS011;9696;53.686;10.094;2022-07-18T05:24:47;6.10;;;2.47;;
19127;SDS011;9696;53.686;10.094;2022-07-18T05:27:16;4.93;;;2.15;;
19127;SDS011;9696;53.686;10.094;2022-07-18T05:29:44;7.88;;;2.30;;
19127;SDS011;9696;53.686;10.094;2022-07-18T05:32:13;5.32;;;2.33;;
19127;SDS011;9696;53.686;10.094;2022-07-18T05:34:45;4.90;;;1.90;;
19127;SDS011;9696;53.686;10.094;2022-07-18T05:37:14;3.83;;;2.33;;
19127;SDS011;9696;53.686;10.094;2022-07-18T05:39:43;3.53;;;1.90;;
19127;SDS011;9696;53.686;10.094;2022-07-18T05:42:13;5.72;;;2.38;;
19127;SDS011;9696;53.686;10.094;2022-07-18T05:44:52;4.95;;;2.25;;
19127;SDS011;9696;53.686;10.094;2022-07-18T05:47:20;3.88;;;2.05;;
19127;SDS011;9696;53.686;10.094;2022-07-18T05:49:49;3.95;;;2.13;;
19127;SDS011;9696;53.686;10.094;2022-07-18T05:52:18;3.80;;;2.20;;
19127;SDS011;9696;53.686;10.094;2022-07-18T05:54:46;5.60;;;2.08;;
19127;SDS011;9696;53.686;10.094;2022-07-18T05:57:17;3.22;;;2.13;;
19127;SDS011;9696;53.686;10.094;2022-07-18T05:59:45;5.18;;;2.38;;
19127;SDS011;9696;53.686;10.094;2022-07-18T06:02:14;6.35;;;2.40;;
19127;SDS011;9696;53.686;10.094;2022-07-18T06:04:43;7.03;;;2.60;;
19127;SDS011;9696;53.686;10.094;2022-07-18T06:07:31;7.70;;;2.42;;
19127;SDS011;9696;53.686;10.094;2022-07-18T06:10:00;4.63;;;2.53;;
19127;SDS011;9696;53.686;10.094;2022-07-18T06:12:31;6.57;;;2.40;;
19127;SDS011;9696;53.686;10.094;2022-07-18T06:15:00;5.68;;;2.80;;
19127;SDS011;9696;53.686;10.094;2022-07-18T06:17:28;11.77;;;2.42;;
19127;SDS011;9696;53.686;10.094;2022-07-18T06:19:57;4.03;;;2.10;;
19127;SDS011;9696;53.686;10.094;2022-07-18T06:22:26;7.15;;;2.15;;
19127;SDS011;9696;53.686;10.094;2022-07-18T06:24:54;4.30;;;2.20;;
19127;SDS011;9696;53.686;10.094;2022-07-18T06:27:23;4.90;;;2.35;;
19127;SDS011;9696;53.686;10.094;2022-07-18T06:29:55;4.45;;;2.53;;
19127;SDS011;9696;53.686;10.094;2022-07-18T06:32:25;6.72;;;2.45;;
19127;SDS011;9696;53.686;10.094;2022-07-18T06:34:54;6.45;;;2.72;;
19127;SDS011;9696;53.686;10.094;2022-07-18T06:37:22;3.90;;;2.08;;
19127;SDS011;9696;53.686;10.094;2022-07-18T06:39:50;7.45;;;2.50;;
19127;SDS011;9696;53.686;10.094;2022-07-18T06:42:19;9.05;;;2.40;;
19127;SDS011;9696;53.686;10.094;2022-07-18T06:44:47;6.57;;;2.92;;
19127;SDS011;9696;53.686;10.094;2022-07-18T06:47:17;7.35;;;2.60;;
19127;SDS011;9696;53.686;10.094;2022-07-18T06:49:46;5.05;;;2.60;;
19127;SDS011;9696;53.686;10.094;2022-07-18T06:52:14;6.65;;;2.22;;
19127;SDS011;9696;53.686;10.094;2022-07-18T06:54:43;8.43;;;2.78;;
19127;SDS011;9696;53.686;10.094;2022-07-18T06:57:11;6.80;;;2.83;;
19127;SDS011;9696;53.686;10.094;2022-07-18T06:59:40;8.25;;;2.85;;
19127;SDS011;9696;53.686;10.094;2022-07-18T07:02:15;17.50;;;2.55;;
19127;SDS011;9696;53.686;10.094;2022-07-18T07:04:45;7.60;;;2.78;;
19127;SDS011;9696;53.686;10.094;2022-07-18T07:07:14;6.18;;;2.70;;
19127;SDS011;9696;53.686;10.094;2022-07-18T07:09:42;8.68;;;2.88;;
19127;SDS011;9696;53.686;10.094;2022-07-18T07:12:11;7.95;;;2.65;;
19127;SDS011;9696;53.686;10.094;2022-07-18T07:14:39;9.93;;;3.00;;
19127;SDS011;9696;53.686;10.094;2022-07-18T07:17:08;5.55;;;2.45;;
19127;SDS011;9696;53.686;10.094;2022-07-18T07:19:38;8.35;;;2.88;;
19127;SDS011;9696;53.686;10.094;2022-07-18T07:22:07;12.57;;;3.22;;
19127;SDS011;9696;53.686;10.094;2022-07-18T07:24:35;7.88;;;3.22;;
19127;SDS011;9696;53.686;10.094;2022-07-18T07:27:06;7.30;;;3.25;;
19127;SDS011;9696;53.686;10.094;2022-07-18T07:29:34;6.15;;;3.42;;
19127;SDS011;9696;53.686;10.094;2022-07-18T07:32:03;7.63;;;2.95;;
19127;SDS011;9696;53.686;10.094;2022-07-18T07:34:32;5.07;;;2.95;;
19127;SDS011;9696;53.686;10.094;2022-07-18T07:37:02;7.55;;;2.88;;
19127;SDS011;9696;53.686;10.094;2022-07-18T07:39:31;6.30;;;3.28;;
19127;SDS011;9696;53.686;10.094;2022-07-18T07:42:00;7.65;;;3.33;;
19127;SDS011;9696;53.686;10.094;2022-07-18T07:44:30;10.63;;;3.45;;
19127;SDS011;9696;53.686;10.094;2022-07-18T07:46:59;11.18;;;3.30;;
19127;SDS011;9696;53.686;10.094;2022-07-18T07:49:27;8.23;;;3.47;;
19127;SDS011;9696;53.686;10.094;2022-07-18T07:52:00;8.23;;;3.45;;
19127;SDS011;9696;53.686;10.094;2022-07-18T07:54:30;8.43;;;3.38;;
19127;SDS011;9696;53.686;10.094;2022-07-18T07:56:58;9.32;;;3.42;;
19127;SDS011;9696;53.686;10.094;2022-07-18T07:59:26;7.75;;;3.53;;
19127;SDS011;9696;53.686;10.094;2022-07-18T08:01:58;6.95;;;3.60;;
19127;SDS011;9696;53.686;10.094;2022-07-18T08:04:26;6.65;;;3.55;;
19127;SDS011;9696;53.686;10.094;2022-07-18T08:06:55;6.35;;;3.22;;
19127;SDS011;9696;53.686;10.094;2022-07-18T08:09:24;6.82;;;3.60;;
19127;SDS011;9696;53.686;10.094;2022-07-18T08:11:54;6.70;;;3.83;;
19127;SDS011;9696;53.686;10.094;2022-07-18T08:14:24;6.07;;;3.40;;
19127;SDS011;9696;53.686;10.094;2022-07-18T08:16:53;8.68;;;3.88;;
19127;SDS011;9696;53.686;10.094;2022-07-18T08:19:22;7.72;;;3.65;;
19127;SDS011;9696;53.686;10.094;2022-07-18T08:21:50;7.47;;;3.50;;
19127;SDS011;9696;53.686;10.094;2022-07-18T08:24:19;8.38;;;3.65;;
19127;SDS011;9696;53.686;10.094;2022-07-18T08:26:47;6.22;;;3.40;;
19127;SDS011;9696;53.686;10.094;2022-07-18T08:29:17;8.18;;;3.63;;
19127;SDS011;9696;53.686;10.094;2022-07-18T08:32:06;7.15;;;3.60;;
19127;SDS011;9696;53.686;10.094;2022-07-18T08:34:35;9.52;;;3.00;;
19127;SDS011;9696;53.686;10.094;2022-07-18T08:37:04;8.18;;;3.55;;
19127;SDS011;9696;53.686;10.094;2022-07-18T08:39:32;10.77;;;3.50;;
19127;SDS011;9696;53.686;10.094;2022-07-18T08:42:01;8.38;;;3.58;;
19127;SDS011;9696;53.686;10.094;2022-07-18T08:44:31;9.82;;;3.78;;
19127;SDS011;9696;53.686;10.094;2022-07-18T08:47:00;6.90;;;3.35;;
19127;SDS011;9696;53.686;10.094;2022-07-18T08:49:29;6.18;;;4.10;;
19127;SDS011;9696;53.686;10.094;2022-07-18T08:51:58;8.93;;;3.58;;
19127;SDS011;9696;53.686;10.094;2022-07-18T08:54:27;7.13;;;3.70;;
19127;SDS011;9696;53.686;10.094;2022-07-18T08:56:55;6.93;;;3.50;;
19127;SDS011;9696;53.686;10.094;2022-07-18T08:59:24;8.18;;;3.25;;
19127;SDS011;9696;53.686;10.094;2022-07-18T09:01:54;6.85;;;3.38;;
19127;SDS011;9696;53.686;10.094;2022-07-18T09:04:31;8.25;;;3.38;;
19127;SDS011;9696;53.686;10.094;2022-07-18T09:07:00;12.10;;;3.55;;
19127;SDS011;9696;53.686;10.094;2022-07-18T09:09:30;14.60;;;4.15;;
19127;SDS011;9696;53.686;10.094;2022-07-18T09:11:59;7.32;;;3.30;;
19127;SDS011;9696;53.686;10.094;2022-07-18T09:14:33;9.32;;;3.67;;
19127;SDS011;9696;53.686;10.094;2022-07-18T09:17:05;7.63;;;3.75;;
19127;SDS011;9696;53.686;10.094;2022-07-18T09:19:36;5.18;;;3.28;;
19127;SDS011;9696;53.686;10.094;2022-07-18T09:22:15;6.32;;;3.70;;
19127;SDS011;9696;53.686;10.094;2022-07-18T09:24:53;6.05;;;3.47;;
19127;SDS011;9696;53.686;10.094;2022-07-18T09:27:24;7.53;;;3.33;;
19127;SDS011;9696;53.686;10.094;2022-07-18T09:30:07;13.23;;;3.55;;
19127;SDS011;9696;53.686;10.094;2022-07-18T09:32:40;5.47;;;3.10;;
19127;SDS011;9696;53.686;10.094;2022-07-18T09:35:09;13.88;;;3.85;;
19127;SDS011;9696;53.686;10.094;2022-07-18T09:37:39;16.80;;;3.80;;
19127;SDS011;9696;53.686;10.094;2022-07-18T09:40:15;10.55;;;3.53;;
19127;SDS011;9696;53.686;10.094;2022-07-18T09:42:48;9.88;;;3.80;;
19127;SDS011;9696;53.686;10.094;2022-07-18T09:45:24;6.35;;;3.58;;
19127;SDS011;9696;53.686;10.094;2022-07-18T09:47:56;6.05;;;3.53;;
19127;SDS011;9696;53.686;10.094;2022-07-18T09:50:27;10.38;;;3.55;;
19127;SDS011;9696;53.686;10.094;2022-07-18T09:53:10;8.68;;;3.88;;
19127;SDS011;9696;53.686;10.094;2022-07-18T09:56:00;6.15;;;2.88;;
19127;SDS011;9696;53.686;10.094;2022-07-18T09:58:32;6.40;;;3.42;;
19127;SDS011;9696;53.686;10.094;2022-07-18T10:01:02;7.53;;;3.20;;
19127;SDS011;9696;53.686;10.094;2022-07-18T10:03:33;5.50;;;3.00;;
19127;SDS011;9696;53.686;10.094;2022-07-18T10:06:02;7.28;;;3.20;;
19127;SDS011;9696;53.686;10.094;2022-07-18T10:08:32;5.82;;;3.00;;
19127;SDS011;9696;53.686;10.094;2022-07-18T10:11:03;7.03;;;3.17;;
19127;SDS011;9696;53.686;10.094;2022-07-18T10:13:33;8.00;;;3.20;;
19127;SDS011;9696;53.686;10.094;2022-07-18T10:16:03;5.78;;;3.00;;
19127;SDS011;9696;53.686;10.094;2022-07-18T10:18:35;9.25;;;2.97;;
19127;SDS011;9696;53.686;10.094;2022-07-18T10:21:04;4.63;;;2.95;;
19127;SDS011;9696;53.686;10.094;2022-07-18T10:23:35;7.72;;;3.25;;
19127;SDS011;9696;53.686;10.094;2022-07-18T10:26:10;9.60;;;3.10;;
19127;SDS011;9696;53.686;10.094;2022-07-18T10:31:40;7.10;;;2.83;;
19127;SDS011;9696;53.686;10.094;2022-07-18T10:34:28;7.10;;;2.50;;
19127;SDS011;9696;53.686;10.094;2022-07-18T10:37:09;7.20;;;2.90;;
19127;SDS011;9696;53.686;10.094;2022-07-18T10:39:39;4.50;;;2.70;;
19127;SDS011;9696;53.686;10.094;2022-07-18T10:42:14;9.85;;;2.75;;
19127;SDS011;9696;53.686;10.094;2022-07-18T10:44:45;6.57;;;3.08;;
19127;SDS011;9696;53.686;10.094;2022-07-18T10:47:15;5.72;;;2.83;;
19127;SDS011;9696;53.686;10.094;2022-07-18T10:55:30;5.60;;;2.85;;
19127;SDS011;9696;53.686;10.094;2022-07-18T10:58:15;3.95;;;2.63;;
19127;SDS011;9696;53.686;10.094;2022-07-18T11:00:52;6.65;;;2.83;;
19127;SDS011;9696;53.686;10.094;2022-07-18T11:03:27;9.98;;;3.30;;
19127;SDS011;9696;53.686;10.094;2022-07-18T11:05:57;8.07;;;3.40;;
19127;SDS011;9696;53.686;10.094;2022-07-18T11:08:26;7.65;;;3.25;;
19127;SDS011;9696;53.686;10.094;2022-07-18T11:11:06;5.70;;;2.88;;
19127;SDS011;9696;53.686;10.094;2022-07-18T11:13:42;9.82;;;2.95;;
19127;SDS011;9696;53.686;10.094;2022-07-18T11:16:16;5.38;;;3.13;;
19127;SDS011;9696;53.686;10.094;2022-07-18T11:21:45;6.40;;;2.65;;
19127;SDS011;9696;53.686;10.094;2022-07-18T11:24:14;11.00;;;2.67;;
19127;SDS011;9696;53.686;10.094;2022-07-18T11:26:44;6.40;;;3.08;;
19127;SDS011;9696;53.686;10.094;2022-07-18T11:29:14;5.28;;;2.72;;
19127;SDS011;9696;53.686;10.094;2022-07-18T11:31:44;7.75;;;2.83;;
19127;SDS011;9696;53.686;10.094;2022-07-18T11:34:14;6.55;;;2.97;;
19127;SDS011;9696;53.686;10.094;2022-07-18T11:36:46;6.93;;;2.65;;
19127;SDS011;9696;53.686;10.094;2022-07-18T11:39:26;6.38;;;2.80;;
19127;SDS011;9696;53.686;10.094;2022-07-18T11:41:56;8.13;;;2.58;;
19127;SDS011;9696;53.686;10.094;2022-07-18T11:44:25;7.20;;;2.60;;
19127;SDS011;9696;53.686;10.094;2022-07-18T11:47:01;4.80;;;2.70;;
19127;SDS011;9696;53.686;10.094;2022-07-18T11:49:30;12.00;;;2.70;;
19127;SDS011;9696;53.686;10.094;2022-07-18T11:52:00;7.70;;;3.28;;
19127;SDS011;9696;53.686;10.094;2022-07-18T11:54:28;6.18;;;2.63;;
19127;SDS011;9696;53.686;10.094;2022-07-18T11:56:58;5.03;;;2.80;;
19127;SDS011;9696;53.686;10.094;2022-07-18T11:59:37;10.30;;;3.10;;
19127;SDS011;9696;53.686;10.094;2022-07-18T12:02:06;6.75;;;2.83;;
19127;SDS011;9696;53.686;10.094;2022-07-18T12:04:35;5.38;;;2.90;;
19127;SDS011;9696;53.686;10.094;2022-07-18T12:07:18;6.43;;;2.90;;
19127;SDS011;9696;53.686;10.094;2022-07-18T12:09:47;4.93;;;2.58;;
19127;SDS011;9696;53.686;10.094;2022-07-18T12:12:17;6.00;;;2.60;;
19127;SDS011;9696;53.686;10.094;2022-07-18T12:14:55;6.88;;;3.10;;
19127;SDS011;9696;53.686;10.094;2022-07-18T12:17:25;5.00;;;2.53;;
19127;SDS011;9696;53.686;10.094;2022-07-18T12:20:08;6.95;;;2.85;;
19127;SDS011;9696;53.686;10.094;2022-07-18T12:25:34;5.05;;;2.65;;
19127;SDS011;9696;53.686;10.094;2022-07-18T12:28:13;6.72;;;2.38;;
19127;SDS011;9696;53.686;10.094;2022-07-18T12:30:42;10.98;;;3.08;;
19127;SDS011;9696;53.686;10.094;2022-07-18T12:33:12;6.97;;;2.80;;
19127;SDS011;9696;53.686;10.094;2022-07-18T12:35:40;6.32;;;2.75;;
19127;SDS011;9696;53.686;10.094;2022-07-18T12:38:11;11.80;;;3.05;;
19127;SDS011;9696;53.686;10.094;2022-07-18T12:40:42;5.90;;;2.78;;
19127;SDS011;9696;53.686;10.094;2022-07-18T12:43:13;4.53;;;2.45;;
19127;SDS011;9696;53.686;10.094;2022-07-18T12:45:42;3.72;;;2.30;;
19127;SDS011;9696;53.686;10.094;2022-07-18T12:48:12;8.77;;;2.85;;
19127;SDS011;9696;53.686;10.094;2022-07-18T12:50:40;5.78;;;2.83;;
19127;SDS011;9696;53.686;10.094;2022-07-18T12:53:12;4.38;;;2.30;;
19127;SDS011;9696;53.686;10.094;2022-07-18T12:55:40;7.97;;;2.80;;
19127;SDS011;9696;53.686;10.094;2022-07-18T12:58:09;4.22;;;2.17;;
19127;SDS011;9696;53.686;10.094;2022-07-18T13:00:37;4.65;;;2.22;;
19127;SDS011;9696;53.686;10.094;2022-07-18T13:03:06;4.35;;;2.30;;
19127;SDS011;9696;53.686;10.094;2022-07-18T13:05:35;6.20;;;2.38;;
19127;SDS011;9696;53.686;10.094;2022-07-18T13:08:03;3.17;;;2.10;;
19127;SDS011;9696;53.686;10.094;2022-07-18T13:10:35;6.25;;;2.25;;
19127;SDS011;9696;53.686;10.094;2022-07-18T13:13:05;2.95;;;2.15;;
19127;SDS011;9696;53.686;10.094;2022-07-18T13:15:34;6.03;;;2.40;;
19127;SDS011;9696;53.686;10.094;2022-07-18T13:18:03;7.95;;;2.30;;
19127;SDS011;9696;53.686;10.094;2022-07-18T13:20:32;4.45;;;2.40;;
19127;SDS011;9696;53.686;10.094;2022-07-18T13:23:01;8.10;;;2.22;;
19127;SDS011;9696;53.686;10.094;2022-07-18T13:25:30;6.65;;;2.38;;
19127;SDS011;9696;53.686;10.094;2022-07-18T13:28:01;7.20;;;2.30;;
19127;SDS011;9696;53.686;10.094;2022-07-18T13:30:30;3.15;;;2.15;;
19127;SDS011;9696;53.686;10.094;2022-07-18T13:32:58;5.95;;;2.25;;
19127;SDS011;9696;53.686;10.094;2022-07-18T13:35:27;5.13;;;2.00;;
19127;SDS011;9696;53.686;10.094;2022-07-18T13:37:55;3.53;;;2.03;;
19127;SDS011;9696;53.686;10.094;2022-07-18T13:40:24;4.15;;;2.10;;
19127;SDS011;9696;53.686;10.094;2022-07-18T13:42:54;9.65;;;2.10;;
19127;SDS011;9696;53.686;10.094;2022-07-18T13:45:24;3.20;;;1.80;;
19127;SDS011;9696;53.686;10.094;2022-07-18T13:47:53;6.20;;;2.10;;
19127;SDS011;9696;53.686;10.094;2022-07-18T13:50:21;2.30;;;1.80;;
19127;SDS011;9696;53.686;10.094;2022-07-18T13:52:50;2.30;;;1.63;;
19127;SDS011;9696;53.686;10.094;2022-07-18T13:55:19;3.58;;;1.98;;
19127;SDS011;9696;53.686;10.094;2022-07-18T13:57:47;5.53;;;2.17;;
19127;SDS011;9696;53.686;10.094;2022-07-18T14:00:16;3.17;;;1.70;;
19127;SDS011;9696;53.686;10.094;2022-07-18T14:02:46;2.78;;;1.45;;
19127;SDS011;9696;53.686;10.094;2022-07-18T14:05:15;2.15;;;1.33;;
19127;SDS011;9696;53.686;10.094;2022-07-18T14:07:44;3.90;;;1.73;;
19127;SDS011;9696;53.686;10.094;2022-07-18T14:10:14;4.38;;;1.60;;
19127;SDS011;9696;53.686;10.094;2022-07-18T14:12:43;3.85;;;1.58;;
19127;SDS011;9696;53.686;10.094;2022-07-18T14:15:12;3.15;;;1.50;;
19127;SDS011;9696;53.686;10.094;2022-07-18T14:17:41;3.80;;;1.70;;
19127;SDS011;9696;53.686;10.094;2022-07-18T14:20:11;4.85;;;1.42;;
19127;SDS011;9696;53.686;10.094;2022-07-18T14:22:40;3.33;;;1.45;;
19127;SDS011;9696;53.686;10.094;2022-07-18T14:25:10;1.73;;;1.40;;
19127;SDS011;9696;53.686;10.094;2022-07-18T14:27:40;2.83;;;1.40;;
19127;SDS011;9696;53.686;10.094;2022-07-18T14:30:10;4.43;;;1.80;;
19127;SDS011;9696;53.686;10.094;2022-07-18T14:32:40;4.00;;;1.60;;
19127;SDS011;9696;53.686;10.094;2022-07-18T14:35:10;3.95;;;1.52;;
19127;SDS011;9696;53.686;10.094;2022-07-18T14:37:39;3.50;;;1.80;;
19127;SDS011;9696;53.686;10.094;2022-07-18T14:40:08;2.20;;;1.50;;
19127;SDS011;9696;53.686;10.094;2022-07-18T14:42:37;5.30;;;2.00;;
19127;SDS011;9696;53.686;10.094;2022-07-18T14:45:06;6.70;;;2.35;;
19127;SDS011;9696;53.686;10.094;2022-07-18T14:47:36;5.45;;;2.40;;
19127;SDS011;9696;53.686;10.094;2022-07-18T14:50:05;2.67;;;1.75;;
19127;SDS011;9696;53.686;10.094;2022-07-18T14:52:37;3.50;;;1.98;;
19127;SDS011;9696;53.686;10.094;2022-07-18T14:55:06;4.63;;;2.15;;
19127;SDS011;9696;53.686;10.094;2022-07-18T14:57:37;5.72;;;1.92;;
19127;SDS011;9696;53.686;10.094;2022-07-18T15:00:06;4.70;;;2.15;;
19127;SDS011;9696;53.686;10.094;2022-07-18T15:02:36;3.08;;;2.15;;
19127;SDS011;9696;53.686;10.094;2022-07-18T15:05:05;3.38;;;2.08;;
19127;SDS011;9696;53.686;10.094;2022-07-18T15:07:34;3.30;;;2.15;;
19127;SDS011;9696;53.686;10.094;2022-07-18T15:10:05;5.15;;;2.38;;
19127;SDS011;9696;53.686;10.094;2022-07-18T15:12:34;2.60;;;2.00;;
19127;SDS011;9696;53.686;10.094;2022-07-18T15:15:03;7.65;;;2.20;;
19127;SDS011;9696;53.686;10.094;2022-07-18T15:17:33;5.28;;;2.22;;
19127;SDS011;9696;53.686;10.094;2022-07-18T15:20:02;7.00;;;2.17;;